Tiempo atmosférico en la estación meteorológica de Villacarriedo, Cantabria (194 m.)



Fecha
DESCASC
Temp. máxima en grados centígrados (hora)
DESCASC
Temp. mínima en grados centígrados (hora)
DESCASC
Temp. media en grados centígrados
DESCASC
Racha de viento máxima en m/sg (hora)
DESCASC
Velocidad máxima media en intervalos de 10 minutos(hora)
DESCASC
Precipitaciones diarias en mm
DESCASC
Precipitaciones de 00:00 a 06:00 en mm
DESCASC
Precipitaciones de 06:00 a 12:00 en mm
DESCASC
Precipitaciones de 12:00 a 18:00 en mm
DESCASC
Precipitaciones de 18:00 a 24:00 en mm
DESCASC
22-01-2020 8.7 (14:00) 3.3 (22:30) 6 4.72 (09:00) 3.33 (09:30) 0.4 0.4 0 0 0
21-01-2020 7.4 (20:10) 2.1 (05:50) 4.8 6.67 (20:50) 3.61 (12:30) 0 0 0 0 0
20-01-2020 6.6 (13:50) 4.4 (09:40) 5.5 13.89 (00:30) 6.94 (01:40) 0.2 0.2 0 0 0
19-01-2020 8.5 (03:00) 5.9 (00:00) 7.2 14.44 (22:10) 7.5 (22:50) 11.2 10.2 1 0 0
18-01-2020 15.2 (16:00) 4.7 (00:00) 9.9 22.22 (11:20) 11.11 (11:20) 8.2 0 0.2 3.2 4.8
17-01-2020 13.9 (00:00) 5 (00:00) 9.4 14.17 (00:10) 7.22 (00:10) 0.4 0 0.4 0 0
16-01-2020 17.8 (15:30) 13.2 (00:00) 15.5 20.83 (14:40) 12.5 (15:30) 0 0 0 0 0
15-01-2020 15.3 (13:30) 6.8 (00:00) 11.1 23.61 (01:10) 13.33 (01:10) 0 0 0 0 0
14-01-2020 13.7 (15:20) 9.1 (00:00) 11.4 22.22 (17:20) 14.72 (17:30) 0 0 0 0 0
13-01-2020 14.4 (13:50) -0.5 (-00:0) 6.9 16.39 (23:50) 9.44 (23:20) 0 0 0 0 0
12-01-2020 15.6 (16:10) -1.7 (-00:0) 7 2.78 (06:00) 1.94 (06:00) 0 0 0 0 0
11-01-2020 13.6 (15:50) -1.1 (-00:0) 6.3 3.33 (16:40) 2.5 (16:50) 0 0 0 0 0
10-01-2020 9.9 (13:30) 4.4 (00:00) 7.1 9.44 (04:10) 4.72 (13:00) 6.6 0.4 1 3.4 1.8
09-01-2020 18.3 (13:40) 3.3 (00:00) 10.8 22.22 (15:30) 10 (15:50) 1 0 0 0 1
08-01-2020 16.1 (15:10) 1.3 (00:00) 8.7 3.33 (16:00) 1.94 (15:50) 0 0 0 0 0
07-01-2020 15.4 (14:50) 0.2 (00:00) 7.8 5 (16:10) 2.78 (16:10) 0 0 0 0 0
06-01-2020 12.3 (14:50) -2.3 (-00:0) 5 4.44 (18:30) 2.22 (15:10) 0 0 0 0 0
05-01-2020 12.6 (16:10) -1.4 (-00:0) 5.6 2.5 (17:10) 1.67 (16:50) 0 0 0 0 0
04-01-2020 10.4 (16:20) 2.3 (00:00) 6.3 4.72 (14:10) 2.5 (14:20) 2.2 0.6 1.6 0 0
03-01-2020 9.3 (15:10) 2.2 (00:00) 5.8 2.78 (00:20) 1.67 (00:20) 3.2 0 0 1.4 1.8
02-01-2020 14.1 (15:10) -1.4 (-00:0) 6.4 5.28 (16:20) 3.33 (16:20) 0 0 0 0 0
01-01-2020 13 (14:00) 1.2 (00:00) 7.1 3.33 (16:20) 1.67 (16:40) 0 0 0 0 0
31-12-2019 14.6 (15:20) -1.6 (-00:0) 6.5 2.78 (16:20) 1.67 (16:20) 0 0 0 0 0
30-12-2019 -- (--) -- (--) -- -- (--) -- (--) -- 0 0 0 --
29-12-2019 16.5 (16:00) -0.6 (-00:0) 7.9 2.22 (16:20) 1.67 (16:20) 0 0 0 0 0
28-12-2019 14.9 (15:40) -2 (-00:0) 6.4 3.61 (16:20) 2.78 (16:20) 0 0 0 0 0
27-12-2019 13.6 (15:20) -1.2 (-00:0) 6.2 2.78 (16:10) 1.94 (16:10) 0 0 0 0 0
26-12-2019 17.9 (00:20) 3.4 (00:00) 10.6 14.44 (00:20) 6.39 (00:20) 0 0 0 0 0

Gráficas

Temp. máximas Temp. mínimas Temp. medias Precipitaciones Rachas de viento máximas Velocidades máximas media en intervalos de 10 minutos

Datos horarios

Fecha y hora oficial Temperatura (ºC) Velocidad del viento (km/h) Dirección del viento Racha (km/h) Dirección de racha Precipitación (mm) Presión (hPa) Tendencia (hPa) Humedad (%)
2020-01-24 23:00:00 7.4 3 Este 9 Este 0 -- -- 89
2020-01-24 22:00:00 8.6 3 Oeste 6 Norte 0 -- -- 87
2020-01-24 21:00:00 9.1 4 Este 9 Sudoeste 0 -- -- 86
2020-01-24 20:00:00 10 2 Oeste 16 Norte 0 -- -- 83
2020-01-24 19:00:00 10.9 5 Norte 14 Sudeste 0 -- -- 76
2020-01-24 18:00:00 12.1 5 Sudeste 14 Sudeste 0 -- -- 64
2020-01-24 17:00:00 13 4 Este 19 Sudoeste 0 -- -- 62
2020-01-24 16:00:00 13.6 12 Sur 29 Sudoeste 0 -- -- 58
2020-01-24 15:00:00 13.7 18 Sudoeste 30 Sudoeste 0 -- -- 55
2020-01-24 14:00:00 13 14 Este 27 Sudeste 0 -- -- 62
2020-01-24 13:00:00 12.4 16 Sudeste 32 Sur 0 -- -- 64
2020-01-24 12:00:00 12.1 15 Sur 27 Sudeste 0 -- -- 62
2020-01-24 11:00:00 11.5 13 Sudeste 31 Sudeste 0 -- -- 63
2020-01-24 10:00:00 11 17 Sudeste 30 Sudeste 0 -- -- 63
2020-01-24 09:00:00 10.5 17 Sudeste 27 Sudeste 0 -- -- 64
2020-01-24 08:00:00 10.3 8 Sudeste 27 Sudeste 0 -- -- 64
2020-01-24 07:00:00 10.6 7 Este 18 Sudeste 0 -- -- 64
2020-01-24 06:00:00 10 9 Este 23 Este 0 -- -- 65
2020-01-24 05:00:00 10 9 Este 24 Este 0 -- -- 65
2020-01-24 04:00:00 10.2 7 Sur 31 Sudoeste 0 -- -- 63
2020-01-24 03:00:00 10.5 9 Sudoeste 29 Sudoeste 0 -- -- 63
2020-01-24 02:00:00 10.3 12 Sudoeste 30 Sudoeste 0 -- -- 63
2020-01-24 01:00:00 10.2 17 Sudoeste 34 Sudoeste 0 -- -- 65
2020-01-24 00:00:00 9.6 9 Sur 19 Sudoeste 0 -- -- 67
2020-01-23 23:00:00 9.3 9 Sudeste 18 Sudeste 0 -- -- 70
2020-01-23 22:00:00 7.1 4 Sudoeste 10 Sudeste 0 -- -- 86
2020-01-23 21:00:00 6.5 0 Calma 5 Noroeste 0 -- -- 93
2020-01-23 20:00:00 7.3 0 Calma 4 Norte 0 -- -- 90
2020-01-23 19:00:00 8.1 3 Norte 5 Norte 0 -- -- 87
2020-01-23 18:00:00 9 0 Calma 7 Norte 0 -- -- 82
2020-01-23 17:00:00 9.5 4 Norte 7 Norte 0 -- -- 81
2020-01-23 16:00:00 10.2 4 Norte 8 Nordeste 0 -- -- 79
2020-01-23 15:00:00 10.6 6 Nordeste 9 Noroeste 0 -- -- 79
2020-01-23 14:00:00 10.7 5 Oeste 10 Nordeste 0 -- -- 74
2020-01-23 13:00:00 9.1 3 Noroeste 5 Noroeste 0 -- -- 82
2020-01-23 12:00:00 5.8 0 Calma 8 Oeste 0 -- -- 100
2020-01-23 11:00:00 4.1 5 Norte 7 Nordeste 0 -- -- 100
2020-01-23 10:00:00 2.2 3 Sudeste 7 Sudoeste 0 -- -- 100
2020-01-23 09:00:00 1.3 4 Oeste 7 Norte 0 -- -- 100
2020-01-23 08:00:00 1.3 5 Norte 7 Norte 0 -- -- 100
2020-01-23 07:00:00 1.5 3 Nordeste 8 Nordeste 0 -- -- 100
2020-01-23 06:00:00 2 3 Sudoeste 7 Sudoeste 0 -- -- 100
2020-01-23 05:00:00 2.7 3 Noroeste 5 Noroeste 0 -- -- 99
2020-01-23 04:00:00 3.4 0 Calma 6 Noroeste 0 -- -- 100
2020-01-23 03:00:00 3.4 2 Sudeste 6 Este 0 -- -- 100
2020-01-23 02:00:00 3.8 2 Noroeste 5 Nordeste 0 -- -- 100
2020-01-23 01:00:00 3.8 2 Este 5 Oeste 0 -- -- 99
2020-01-23 00:00:00 3.8 3 Sudoeste 7 Norte 0 -- -- 99
2020-01-22 23:00:00 3.6 3 Nordeste 8 Sudoeste 0 -- -- 98
2020-01-22 22:00:00 3.6 3 Sudeste 8 Sudoeste 0 -- -- 97
2020-01-22 21:00:00 5.4 2 Oeste 7 Sur 0 -- -- 96
2020-01-22 20:00:00 6.5 4 Oeste 6 Sudoeste 0 -- -- 94
2020-01-22 19:00:00 7.7 2 Sudoeste 6 Sudoeste 0 -- -- 93
2020-01-22 18:00:00 7.8 3 Noroeste 4 Noroeste 0 -- -- 92
2020-01-22 17:00:00 8.1 3 Norte 6 Nordeste 0 -- -- 93
2020-01-22 16:00:00 8.3 4 Nordeste 8 Norte 0 -- -- 91
2020-01-22 15:00:00 8.4 6 Norte 9 Norte 0 -- -- 90
2020-01-22 14:00:00 8.7 3 Noroeste 7 Norte 0 -- -- 88
2020-01-22 13:00:00 8.4 3 Norte 4 Norte 0 -- -- 88
2020-01-22 12:00:00 7.9 0 Calma 9 Este 0 -- -- 91
2020-01-22 11:00:00 7.8 2 Sudeste 8 Noroeste 0 -- -- 91
2020-01-22 10:00:00 7.3 5 Sudoeste 16 Norte 0 -- -- 93
2020-01-22 09:00:00 7.3 12 Norte 17 Norte 0 -- -- 92
2020-01-22 08:00:00 7.1 0 Calma 8 Nordeste 0 -- -- 93
2020-01-22 07:00:00 6.8 2 Oeste 8 Norte 0 -- -- 97
2020-01-22 06:00:00 6 4 Oeste 9 Norte 0.2 -- -- 100
2020-01-22 05:00:00 5.8 0 Calma 6 Oeste 0 -- -- 98
2020-01-22 04:00:00 5.6 2 Norte 9 Este 0 -- -- 98
2020-01-22 03:00:00 5.6 3 Norte 5 Noroeste 0.2 -- -- 97
2020-01-22 02:00:00 5.7 0 Calma 5 Noroeste 0 -- -- 96
2020-01-22 01:00:00 5.9 3 Este 15 Oeste 0 -- -- 93
2020-01-22 00:00:00 6.3 5 Noroeste 14 Noroeste 0 -- -- 88
2020-01-21 23:00:00 6.2 9 Noroeste 23 Oeste 0 -- -- 88
2020-01-21 22:00:00 6.3 10 Oeste 19 Oeste 0 -- -- 86
2020-01-21 21:00:00 7 9 Norte 24 Oeste 0 -- -- 81
2020-01-21 20:00:00 7.3 5 Nordeste 21 Nordeste 0 -- -- 78
2020-01-21 19:00:00 6.1 9 Norte 19 Noroeste 0 -- -- 84
2020-01-21 18:00:00 6 2 Este 10 Norte 0 -- -- 88
2020-01-21 17:00:00 6 6 Noroeste 19 Norte 0 -- -- 88
2020-01-21 16:00:00 6.4 9 Norte 22 Norte 0 -- -- 82
2020-01-21 15:00:00 6.3 8 Norte 22 Norte 0 -- -- 83
2020-01-21 14:00:00 6.2 12 Norte 20 Norte 0 -- -- 82
2020-01-21 13:00:00 6.3 10 Norte 20 Norte 0 -- -- 80
2020-01-21 12:00:00 6.4 9 Norte 18 Noroeste 0 -- -- 78
2020-01-21 11:00:00 4.5 2 Sudoeste 5 Noroeste 0 -- -- 94
2020-01-21 10:00:00 3 3 Noroeste 6 Oeste 0 -- -- 96
2020-01-21 09:00:00 2.4 3 Nordeste 5 Norte 0 -- -- 95
2020-01-21 08:00:00 2.2 2 Oeste 5 Este 0 -- -- 94
2020-01-21 07:00:00 2.2 0 Calma 5 Este 0 -- -- 91
2020-01-21 06:00:00 2.1 0 Calma 4 Norte 0 -- -- 91
2020-01-21 05:00:00 2.4 3 Norte 6 Norte 0 -- -- 89
2020-01-21 04:00:00 2.8 0 Calma 7 Nordeste 0 -- -- 88
2020-01-21 03:00:00 3.3 4 Norte 8 Noroeste 0 -- -- 86
2020-01-21 02:00:00 4.5 4 Oeste 8 Oeste 0 -- -- 79
2020-01-21 01:00:00 4.7 3 Norte 10 Noroeste 0 -- -- 81
2020-01-21 00:00:00 4.6 2 Nordeste 11 Noroeste 0 -- -- 82
2020-01-20 23:00:00 4.7 6 Nordeste 14 Oeste 0 -- -- 81
2020-01-20 22:00:00 5.1 8 Noroeste 12 Oeste 0 -- -- 75
2020-01-20 21:00:00 5 7 Noroeste 10 Norte 0 -- -- 75
2020-01-20 20:00:00 4.9 5 Noroeste 12 Norte 0 -- -- 74
2020-01-20 19:00:00 4.9 8 Norte 18 Norte 0 -- -- 76
2020-01-20 18:00:00 5 9 Norte 19 Norte 0 -- -- 75
2020-01-20 17:00:00 5.4 11 Norte 21 Norte 0 -- -- 73
2020-01-20 16:00:00 5.8 10 Norte 26 Nordeste 0 -- -- 70
2020-01-20 15:00:00 5.9 12 Norte 26 Norte 0 -- -- 68
2020-01-20 14:00:00 6.1 17 Norte 27 Norte 0 -- -- 67
2020-01-20 13:00:00 5.7 10 Norte 26 Norte 0 -- -- 72
2020-01-20 12:00:00 5.6 17 Norte 25 Norte 0 -- -- 64
2020-01-20 11:00:00 5.3 11 Norte 29 Noroeste 0 -- -- 68
2020-01-20 10:00:00 4.7 13 Norte 29 Norte 0 -- -- 72
2020-01-20 09:00:00 4.7 11 Norte 26 Norte 0 -- -- 72
2020-01-20 08:00:00 4.9 14 Norte 33 Nordeste 0 -- -- 74
2020-01-20 07:00:00 5.1 19 Nordeste 33 Nordeste 0 -- -- 71
2020-01-20 06:00:00 5.3 15 Nordeste 36 Nordeste 0 -- -- 68
2020-01-20 05:00:00 5.4 15 Nordeste 35 Norte 0 -- -- 70
2020-01-20 04:00:00 5.8 22 Nordeste 37 Norte 0 -- -- 65
2020-01-20 03:00:00 5.9 17 Nordeste 45 Nordeste 0 -- -- 63
2020-01-20 02:00:00 6.1 21 Nordeste 43 Nordeste 0 -- -- 64
2020-01-20 01:00:00 5.9 18 Nordeste 50 Nordeste 0.2 -- -- 69
2020-01-20 00:00:00 5.9 19 Nordeste 42 Nordeste 0 -- -- 69
2020-01-19 23:00:00 6.3 24 Nordeste 52 Nordeste 0 -- -- 68
2020-01-19 22:00:00 6.5 25 Nordeste 46 Norte 0 -- -- 68
2020-01-19 21:00:00 6.9 22 Nordeste 42 Norte 0 -- -- 69
2020-01-19 20:00:00 7 19 Norte 37 Norte 0 -- -- 70
2020-01-19 19:00:00 6.6 18 Norte 37 Norte 0 -- -- 69
2020-01-19 18:00:00 7 22 Norte 38 Norte 0 -- -- 70
2020-01-19 17:00:00 7.5 23 Norte 38 Norte 0 -- -- 68
2020-01-19 16:00:00 7.7 21 Norte 39 Norte 0 -- -- 66
2020-01-19 15:00:00 8 21 Norte 37 Norte 0 -- -- 67
2020-01-19 14:00:00 7.9 19 Norte 40 Norte 0 -- -- 68
2020-01-19 13:00:00 8.3 19 Norte 40 Norte 0 -- -- 72
2020-01-19 12:00:00 8.3 17 Norte 36 Nordeste 0 -- -- 75
2020-01-19 11:00:00 8 18 Norte 31 Norte 0 -- -- 76
2020-01-19 10:00:00 7.5 15 Norte 30 Norte 0 -- -- 79
2020-01-19 09:00:00 7.5 16 Norte 31 Norte 0 -- -- 82
2020-01-19 08:00:00 7.8 16 Norte 35 Norte 0.2 -- -- 85
2020-01-19 07:00:00 8 20 Norte 49 Norte 0.8 -- -- 86
2020-01-19 06:00:00 7.4 22 Norte 39 Norte 1.8 -- -- 94
2020-01-19 05:00:00 7.5 12 Norte 37 Nordeste 0.2 -- -- 90
2020-01-19 04:00:00 8 17 Norte 39 Nordeste 0.6 -- -- 92
2020-01-19 03:00:00 8.5 16 Norte 25 Norte 4.2 -- -- 95
2020-01-19 02:00:00 7.6 4 Sudoeste 6 Sudoeste 2 -- -- 98
2020-01-19 01:00:00 7.6 0 Calma 5 Sudeste 1.4 -- -- 97
2020-01-19 00:00:00 7.6 3 Este 8 Oeste 1.4 -- -- 96
2020-01-18 23:00:00 7.7 5 Nordeste 9 Nordeste 0.8 -- -- 96
2020-01-18 22:00:00 7.9 5 Sudeste 9 Sur 0.4 -- -- 93
2020-01-18 21:00:00 8.2 3 Este 15 Sudoeste 2.2 -- -- 91
2020-01-18 20:00:00 8.4 5 Nordeste 11 Noroeste 0 -- -- 85
2020-01-18 19:00:00 8.6 2 Este 20 Sur 0 -- -- 83
2020-01-18 18:00:00 8.6 11 Sudeste 30 Noroeste 0.6 -- -- 86
2020-01-18 17:00:00 9.4 22 Noroeste 64 Noroeste 2.6 -- -- 85
2020-01-18 16:00:00 15.2 9 Sur 50 Sur 0 -- -- 55
2020-01-18 15:00:00 13.9 28 Sur 60 Sudoeste 0 -- -- 60
2020-01-18 14:00:00 13.4 29 Sudoeste 69 Sudoeste 0 -- -- 61
2020-01-18 13:00:00 13 28 Sudoeste 63 Sudoeste 0 -- -- 60
2020-01-18 12:00:00 12.7 28 Sur 80 Sudoeste 0 -- -- 58
2020-01-18 11:00:00 12.4 27 Sur 58 Sur 0.2 -- -- 57
2020-01-18 10:00:00 11.2 27 Sur 60 Sur 0 -- -- 56
2020-01-18 09:00:00 11 22 Sur 45 Sur 0 -- -- 54
2020-01-18 08:00:00 10.6 21 Sur 49 Sur 0 -- -- 55
2020-01-18 07:00:00 10.6 26 Sur 44 Sur 0 -- -- 53
2020-01-18 06:00:00 10 15 Este 26 Este 0 -- -- 56
2020-01-18 05:00:00 6.8 8 Sudoeste 22 Oeste 0 -- -- 75
2020-01-18 04:00:00 4.8 4 Noroeste 6 Noroeste 0 -- -- 95
2020-01-18 03:00:00 5 4 Sudoeste 7 Sudoeste 0 -- -- 93
2020-01-18 02:00:00 4.9 2 Sudoeste 12 Noroeste 0 -- -- 94
2020-01-18 01:00:00 4.8 8 Noroeste 10 Noroeste 0 -- -- 94
2020-01-18 00:00:00 5.1 0 Calma 4 Sudoeste 0 -- -- 92
2020-01-17 23:00:00 5.5 3 Sudoeste 5 Norte 0 -- -- 89
2020-01-17 22:00:00 6.6 3 Sudoeste 5 Sur 0 -- -- 86
2020-01-17 21:00:00 7.5 2 Oeste 7 Noroeste 0 -- -- 82
2020-01-17 20:00:00 7.6 3 Oeste 6 Sudoeste 0 -- -- 82
2020-01-17 19:00:00 8.9 3 Noroeste 5 Oeste 0 -- -- 71
2020-01-17 18:00:00 9.5 2 Sudoeste 26 Noroeste 0 -- -- 68
2020-01-17 17:00:00 10.4 11 Noroeste 23 Noroeste 0 -- -- 67
2020-01-17 16:00:00 11.4 15 Noroeste 26 Noroeste 0 -- -- 62
2020-01-17 15:00:00 11.6 6 Norte 14 Norte 0 -- -- 59
2020-01-17 14:00:00 11.3 8 Sudeste 15 Sudeste 0 -- -- 69
2020-01-17 13:00:00 10.8 4 Sudeste 13 Sudeste 0 -- -- 73
2020-01-17 12:00:00 9.2 8 Noroeste 14 Oeste 0 -- -- 84
2020-01-17 11:00:00 8.3 4 Norte 13 Sudeste 0 -- -- 90
2020-01-17 10:00:00 8 7 Sudeste 14 Sudeste 0.2 -- -- 87
2020-01-17 09:00:00 9.1 8 Oeste 17 Oeste 0.2 -- -- 80
2020-01-17 08:00:00 9.3 3 Sur 35 Noroeste 0 -- -- 80
2020-01-17 07:00:00 9.7 10 Norte 31 Noroeste 0 -- -- 81
2020-01-17 06:00:00 10.7 17 Noroeste 31 Norte 0 -- -- 80
2020-01-17 05:00:00 12 8 Noroeste 34 Oeste 0 -- -- 70
2020-01-17 04:00:00 13 19 Sudoeste 45 Sudoeste 0 -- -- 62
2020-01-17 03:00:00 10.3 6 Oeste 21 Sudoeste 0 -- -- 88
2020-01-17 02:00:00 13.5 12 Sudoeste 41 Sudeste 0 -- -- 56
2020-01-17 01:00:00 13.6 23 Sur 51 Sur 0 -- -- 58
2020-01-17 00:00:00 13.9 30 Sur 51 Sur 0 -- -- 59
2020-01-16 23:00:00 13.2 26 Sur 51 Sur 0 -- -- 61
2020-01-16 22:00:00 14.4 28 Sudoeste 65 Sudoeste 0 -- -- 52
2020-01-16 21:00:00 14.5 28 Sudoeste 75 Sur 0 -- -- 50
2020-01-16 20:00:00 15.4 26 Sur 55 Sur 0 -- -- 43
2020-01-16 19:00:00 15.7 19 Sur 49 Sur 0 -- -- 42
2020-01-16 18:00:00 16.1 19 Sur 49 Sudoeste 0 -- -- 43
2020-01-16 17:00:00 17.1 35 Sur 74 Sudoeste 0 -- -- 44
2020-01-16 16:00:00 17.4 39 Sudoeste 72 Sudoeste 0 -- -- 44
2020-01-16 15:00:00 17.3 38 Sudoeste 75 Sudoeste 0 -- -- 44
2020-01-16 14:00:00 16.3 35 Sudoeste 73 Sudoeste 0 -- -- 55
2020-01-16 13:00:00 15.9 19 Sur 50 Sudoeste 0 -- -- 59
2020-01-16 12:00:00 15.6 18 Sur 44 Sur 0 -- -- 60
2020-01-16 11:00:00 14.8 22 Sur 55 Sudoeste 0 -- -- 64
2020-01-16 10:00:00 14.8 17 Sur 48 Sur 0 -- -- 63
2020-01-16 09:00:00 15.1 24 Sur 55 Sudoeste 0 -- -- 61
2020-01-16 08:00:00 15 23 Sur 46 Sudoeste 0 -- -- 61
2020-01-16 07:00:00 14.8 27 Sudoeste 47 Sudoeste 0 -- -- 64
2020-01-16 06:00:00 14.7 31 Sudoeste 54 Sudoeste 0 -- -- 65
2020-01-16 05:00:00 15 18 Sur 50 Sudoeste 0 -- -- 64
2020-01-16 04:00:00 15.4 17 Sur 50 Sur 0 -- -- 61
2020-01-16 03:00:00 15 23 Sur 48 Sur 0 -- -- 64
2020-01-16 02:00:00 14.9 23 Sur 57 Sur 0 -- -- 64
2020-01-16 01:00:00 14.6 30 Sur 51 Sur 0 -- -- 65
2020-01-16 00:00:00 14.2 27 Sur 53 Sur 0 -- -- 64
2020-01-15 23:00:00 14 19 Sur 44 Sur 0 -- -- 63
2020-01-15 22:00:00 13.7 15 Sur 35 Sudeste 0 -- -- 63
2020-01-15 21:00:00 8.2 7 Nordeste 13 Nordeste 0 -- -- 95
2020-01-15 20:00:00 7.6 3 Oeste 5 Sudoeste 0 -- -- 93
2020-01-15 19:00:00 9.1 2 Sur 9 Sur 0 -- -- 90
2020-01-15 18:00:00 10.8 5 Noroeste 12 Noroeste 0 -- -- 89
2020-01-15 17:00:00 11.9 6 Noroeste 15 Norte 0 -- -- 85
2020-01-15 16:00:00 12.3 11 Norte 16 Norte 0 -- -- 85
2020-01-15 15:00:00 13.3 10 Oeste 17 Noroeste 0 -- -- 77
2020-01-15 14:00:00 13.7 14 Noroeste 39 Sudoeste 0 -- -- 74
2020-01-15 13:00:00 14.2 26 Sudoeste 45 Sudoeste 0 -- -- 61
2020-01-15 12:00:00 13.5 19 Sur 33 Sur 0 -- -- 65
2020-01-15 11:00:00 12.4 18 Oeste 45 Sur 0 -- -- 79
2020-01-15 10:00:00 13.3 21 Sur 54 Sudeste 0 -- -- 62
2020-01-15 09:00:00 13.1 26 Sur 76 Sur 0 -- -- 61
2020-01-15 08:00:00 13.5 39 Sur 78 Sur 0 -- -- 60
2020-01-15 07:00:00 13.4 33 Sur 68 Sur 0 -- -- 60
2020-01-15 06:00:00 13.4 32 Sur 68 Sur 0 -- -- 61
2020-01-15 05:00:00 13.1 35 Sur 76 Sudoeste 0 -- -- 63
2020-01-15 04:00:00 13.1 41 Sur 76 Sur 0 -- -- 64
2020-01-15 03:00:00 13.2 41 Sur 69 Sur 0 -- -- 62
2020-01-15 02:00:00 13 33 Sur 85 Sur 0 -- -- 62
2020-01-15 01:00:00 12.6 42 Sur 71 Sur 0 -- -- 63
2020-01-15 00:00:00 12.6 32 Sudoeste 66 Sudoeste 0 -- -- 62
2020-01-14 23:00:00 12.5 31 Sudoeste 66 Sudoeste 0 -- -- 61
2020-01-14 22:00:00 12.7 33 Sudeste 72 Sur 0 -- -- 58
2020-01-14 21:00:00 13 36 Sur 74 Sur 0 -- -- 58
2020-01-14 20:00:00 13.2 28 Sur 71 Sudoeste 0 -- -- 56
2020-01-14 19:00:00 13.2 26 Sur 60 Sudoeste 0 -- -- 54
2020-01-14 18:00:00 13.1 24 Sur 80 Sudoeste 0 -- -- 56
2020-01-14 17:00:00 13.5 29 Sur 77 Sur 0 -- -- 55
2020-01-14 16:00:00 13.1 36 Sudoeste 73 Sudoeste 0 -- -- 53
2020-01-14 15:00:00 13.5 31 Sur 66 Sudoeste 0 -- -- 52
2020-01-14 14:00:00 12.9 27 Sur 69 Sudeste 0 -- -- 53
2020-01-14 13:00:00 12.3 31 Sur 79 Sur 0 -- -- 57
2020-01-14 12:00:00 10.9 40 Sur 78 Sur 0 -- -- 60
2020-01-14 11:00:00 10.5 29 Sudoeste 64 Sudoeste 0 -- -- 63
2020-01-14 10:00:00 11 26 Este 51 Este 0 -- -- 60
2020-01-14 09:00:00 10 24 Sudeste 43 Sudeste 0 -- -- 64
2020-01-14 08:00:00 10 22 Sudeste 61 Sudeste 0 -- -- 64
2020-01-14 07:00:00 9.8 26 Sudeste 44 Sudeste 0 -- -- 64
2020-01-14 06:00:00 10 20 Sudeste 42 Este 0 -- -- 64
2020-01-14 05:00:00 10 26 Sudeste 45 Sudeste 0 -- -- 61
2020-01-14 04:00:00 9.4 13 Este 33 Sudeste 0 -- -- 63
2020-01-14 03:00:00 9.2 21 Sudeste 55 Sudeste 0 -- -- 62
2020-01-14 02:00:00 9.5 30 Sudeste 57 Este 0 -- -- 59
2020-01-14 01:00:00 9.7 24 Sudeste 52 Este 0 -- -- 57
2020-01-14 00:00:00 9.1 26 Sudeste 59 Este 0 -- -- 57
2020-01-13 23:00:00 8.7 22 Sudeste 55 Sudeste 0 -- -- 56
2020-01-13 22:00:00 8.4 17 Sur 52 Sudeste 0 -- -- 53
2020-01-13 21:00:00 8.7 27 Sudeste 48 Sudeste 0 -- -- 49
2020-01-13 20:00:00 9.5 29 Sudeste 55 Este 0 -- -- 46
2020-01-13 19:00:00 11 23 Este 50 Este 0 -- -- 38
2020-01-13 18:00:00 12.2 27 Este 41 Este 0 -- -- 33
2020-01-13 17:00:00 13.3 8 Nordeste 31 Sur 0 -- -- 31
2020-01-13 16:00:00 13.8 14 Sur 34 Sudoeste 0 -- -- 30
2020-01-13 15:00:00 14.4 13 Sur 37 Este 0 -- -- 26
2020-01-13 14:00:00 14.4 16 Sudeste 34 Sudeste 0 -- -- 29
2020-01-13 13:00:00 13.1 12 Sudeste 24 Sur 0 -- -- 38
2020-01-13 12:00:00 11.3 4 Sur 15 Sur 0 -- -- 52
2020-01-13 11:00:00 9.7 6 Sur 15 Sudeste 0 -- -- 51
2020-01-13 10:00:00 6.2 2 Este 10 Sudeste 0 -- -- 64
2020-01-13 09:00:00 -0.1 3 Sudoeste 9 Noroeste 0 -- -- 99
2020-01-13 08:00:00 -0.1 2 Sur 5 Oeste 0 -- -- 100
2020-01-13 07:00:00 0.3 0 Calma 5 Noroeste 0 -- -- 100
2020-01-13 06:00:00 -0.1 2 Sur 6 Noroeste 0 -- -- 99
2020-01-13 05:00:00 0.2 0 Calma 3 Sudeste 0 -- -- 98
2020-01-13 04:00:00 0.3 2 Sur 3 Sudeste 0 -- -- 98
2020-01-13 03:00:00 0.7 3 Sudoeste 4 Noroeste 0 -- -- 98
2020-01-13 02:00:00 1.3 0 Calma 5 Noroeste 0 -- -- 97
2020-01-13 01:00:00 1.7 2 Noroeste 5 Noroeste 0 -- -- 97
2020-01-13 00:00:00 2.2 2 Oeste 8 Oeste 0 -- -- 96
2020-01-12 23:00:00 3 2 Oeste 3 Sudoeste 0 -- -- 94
2020-01-12 22:00:00 3.7 0 Calma 3 Nordeste 0 -- -- 93
2020-01-12 21:00:00 4.8 3 Norte 3 Norte 0 -- -- 88
2020-01-12 20:00:00 5.9 0 Calma 6 Nordeste 0 -- -- 81
2020-01-12 19:00:00 7.5 3 Sudeste 5 Sudeste 0 -- -- 77
2020-01-12 18:00:00 9.7 2 Sudoeste 7 Noroeste 0 -- -- 72
2020-01-12 17:00:00 14.3 5 Noroeste 7 Oeste 0 -- -- 49
2020-01-12 16:00:00 15.1 0 Calma 3 Nordeste 0 -- -- 45
2020-01-12 15:00:00 14.5 0 Calma 3 Sudoeste 0 -- -- 42
2020-01-12 14:00:00 11.6 0 Calma 4 Norte 0 -- -- 67
2020-01-12 13:00:00 8.4 2 Este 4 Este 0 -- -- 80
2020-01-12 12:00:00 5.5 2 Este 4 Este 0 -- -- 88
2020-01-12 11:00:00 2.1 2 Este 4 Este 0 -- -- 96
2020-01-12 10:00:00 -0.2 0 Calma 3 Este 0 -- -- 100
2020-01-12 09:00:00 -1.4 0 Calma 5 Oeste 0 -- -- 100
2020-01-12 08:00:00 -1.5 4 Norte 7 Norte 0 -- -- 100
2020-01-12 07:00:00 -1.6 4 Sudoeste 8 Oeste 0 -- -- 99
2020-01-12 06:00:00 -1.3 7 Noroeste 10 Noroeste 0 -- -- 100
2020-01-12 05:00:00 -0.7 0 Calma 7 Noroeste 0 -- -- 99
2020-01-12 04:00:00 -0.5 2 Sur 3 Sur 0 -- -- 99
2020-01-12 03:00:00 0.3 0 Calma 4 Norte 0 -- -- 99
2020-01-12 02:00:00 0.8 0 Calma 2 Sudoeste 0 -- -- 98
2020-01-12 01:00:00 1.2 2 Sudoeste 7 Oeste 0 -- -- 97
2020-01-12 00:00:00 2.2 0 Calma 5 Sudeste 0 -- -- 97
2020-01-11 23:00:00 2.8 4 Noroeste 6 Noroeste 0 -- -- 97
2020-01-11 22:00:00 3.5 0 Calma 3 Sudoeste 0 -- -- 92
2020-01-11 21:00:00 4.6 3 Sudoeste 6 Noroeste 0 -- -- 90
2020-01-11 20:00:00 5.9 2 Sudoeste 6 Noroeste 0 -- -- 87
2020-01-11 19:00:00 7.4 0 Calma 4 Sudoeste 0 -- -- 83
2020-01-11 18:00:00 10.3 0 Calma 8 Nordeste 0 -- -- 75
2020-01-11 17:00:00 11.3 6 Norte 12 Norte 0 -- -- 70
2020-01-11 16:00:00 13.5 3 Noroeste 7 Noroeste 0 -- -- 55
2020-01-11 15:00:00 12.4 3 Norte 7 Noroeste 0 -- -- 60
2020-01-11 14:00:00 11 3 Norte 5 Nordeste 0 -- -- 72
2020-01-11 13:00:00 8.7 3 Sudeste 6 Este 0 -- -- 88
2020-01-11 12:00:00 5.1 2 Este 5 Nordeste 0 -- -- 100
2020-01-11 11:00:00 1.3 2 Sur 5 Norte 0 -- -- 100
2020-01-11 10:00:00 -0.7 2 Sur 5 Noroeste 0 -- -- 100
2020-01-11 09:00:00 -1.1 2 Oeste 5 Noroeste 0 -- -- 100
2020-01-11 08:00:00 -0.7 0 Calma 6 Noroeste 0 -- -- 100
2020-01-11 07:00:00 -0.5 2 Norte 3 Norte 0 -- -- 100
2020-01-11 06:00:00 0.4 0 Calma 4 Norte 0 -- -- 100
2020-01-11 05:00:00 0.8 0 Calma 3 Oeste 0 -- -- 100
2020-01-11 04:00:00 1.2 0 Calma 3 Noroeste 0 -- -- 100
2020-01-11 03:00:00 1.8 3 Noroeste 5 Noroeste 0 -- -- 100
2020-01-11 02:00:00 2.4 0 Calma 4 Nordeste 0 -- -- 100
2020-01-11 01:00:00 3.5 2 Sur 4 Sudoeste 0 -- -- 99
2020-01-11 00:00:00 4.5 3 Sudoeste 5 Noroeste 0 -- -- 99
2020-01-10 23:00:00 5.5 0 Calma 6 Este 0 -- -- 96
2020-01-10 22:00:00 6.5 2 Sur 8 Sur 0 -- -- 97
2020-01-10 21:00:00 7.4 5 Este 8 Nordeste 0.2 -- -- 98
2020-01-10 20:00:00 7.7 3 Norte 6 Sur 1.4 -- -- 97
2020-01-10 19:00:00 8 2 Sudoeste 8 Nordeste 0.2 -- -- 95
2020-01-10 18:00:00 8.3 0 Calma 13 Noroeste 0 -- -- 91
2020-01-10 17:00:00 8.8 6 Noroeste 12 Oeste 0 -- -- 89
2020-01-10 16:00:00 9.2 3 Oeste 8 Noroeste 0 -- -- 89
2020-01-10 15:00:00 8.8 3 Sur 12 Nordeste 2.6 -- -- 95
2020-01-10 14:00:00 9.3 6 Norte 26 Noroeste 0.6 -- -- 90
2020-01-10 13:00:00 9.4 17 Noroeste 27 Noroeste 0.2 -- -- 83
2020-01-10 12:00:00 8.8 6 Oeste 18 Oeste 0.2 -- -- 87
2020-01-10 11:00:00 7.7 3 Este 8 Sudeste 0 -- -- 93
2020-01-10 10:00:00 6.9 3 Este 9 Sudeste 0.2 -- -- 93
2020-01-10 09:00:00 6.9 4 Sudeste 17 Noroeste 0.2 -- -- 88
2020-01-10 08:00:00 7.2 4 Oeste 16 Noroeste 0 -- -- 84
2020-01-10 07:00:00 7.3 0 Calma 11 Oeste 0.4 -- -- 84
2020-01-10 06:00:00 7.7 3 Sudoeste 20 Noroeste 0 -- -- 79
2020-01-10 05:00:00 7.8 4 Noroeste 34 Oeste 0.2 -- -- 81
2020-01-10 04:00:00 8.2 10 Noroeste 28 Noroeste 0.2 -- -- 82
2020-01-10 03:00:00 8.7 13 Noroeste 24 Noroeste 0 -- -- 76
2020-01-10 02:00:00 8.6 5 Norte 16 Oeste 0 -- -- 78
2020-01-10 01:00:00 7.8 4 Sur 17 Noroeste 0 -- -- 84
2020-01-10 00:00:00 7 4 Nordeste 12 Sudeste 0 -- -- 86
2020-01-09 23:00:00 6.9 3 Sudeste 11 Noroeste 0 -- -- 84
2020-01-09 22:00:00 6.8 4 Sudeste 13 Oeste 0.2 -- -- 95
2020-01-09 21:00:00 8.3 3 Sudoeste 10 Sudeste 0 -- -- 94
2020-01-09 20:00:00 9.2 8 Sudeste 15 Sudeste 0.4 -- -- 91
2020-01-09 19:00:00 10.2 2 Oeste 29 Noroeste 0.4 -- -- 83
2020-01-09 18:00:00 11.2 21 Noroeste 42 Oeste 0 -- -- 73
2020-01-09 17:00:00 11.1 10 Noroeste 43 Noroeste 0 -- -- 77
2020-01-09 16:00:00 11.3 28 Noroeste 80 Noroeste 0 -- -- 83
2020-01-09 15:00:00 17.3 15 Sudoeste 47 Sudoeste 0 -- -- 52
2020-01-09 14:00:00 17.9 19 Sur 41 Sudeste 0 -- -- 50
2020-01-09 13:00:00 17.5 8 Este 28 Sudeste 0 -- -- 54
2020-01-09 12:00:00 15.7 16 Sudeste 37 Sudeste 0 -- -- 58
2020-01-09 11:00:00 13.7 3 Sudoeste 14 Sudeste 0 -- -- 63
2020-01-09 10:00:00 10.9 3 Oeste 12 Norte 0 -- -- 69
2020-01-09 09:00:00 6.7 4 Noroeste 10 Este 0 -- -- 82
2020-01-09 08:00:00 3.8 4 Sudoeste 9 Noroeste 0 -- -- 97
2020-01-09 07:00:00 3.8 0 Calma 6 Sudeste 0 -- -- 98
2020-01-09 06:00:00 3.8 0 Calma 6 Sudeste 0 -- -- 99
2020-01-09 05:00:00 3.3 3 Sudoeste 5 Sudoeste 0 -- -- 99
2020-01-09 04:00:00 3.5 0 Calma 4 Sudoeste 0 -- -- 98
2020-01-09 03:00:00 3.5 0 Calma 4 Sudeste 0 -- -- 97
2020-01-09 02:00:00 4.1 0 Calma 4 Este 0 -- -- 98
2020-01-09 01:00:00 4.7 0 Calma 3 Noroeste 0 -- -- 96
2020-01-09 00:00:00 5 3 Sur 8 Noroeste 0 -- -- 94
2020-01-08 23:00:00 5.5 2 Sudeste 5 Sudeste 0 -- -- 94
2020-01-08 22:00:00 6.2 0 Calma 5 Norte 0 -- -- 92
2020-01-08 21:00:00 7.1 0 Calma 6 Noroeste 0 -- -- 89
2020-01-08 20:00:00 8.4 3 Noroeste 4 Noroeste 0 -- -- 85
2020-01-08 19:00:00 9.5 2 Sur 8 Noroeste 0 -- -- 80
2020-01-08 18:00:00 11.6 2 Sudoeste 7 Norte 0 -- -- 73
2020-01-08 17:00:00 15.3 0 Calma 11 Nordeste 0 -- -- 62
2020-01-08 16:00:00 15.9 6 Nordeste 12 Nordeste 0 -- -- 56
2020-01-08 15:00:00 16 3 Norte 6 Noroeste 0 -- -- 55
2020-01-08 14:00:00 14.4 0 Calma 5 Este 0 -- -- 69
2020-01-08 13:00:00 11 0 Calma 5 Este 0 -- -- 85
2020-01-08 12:00:00 6.7 0 Calma 4 Sudeste 0 -- -- 100
2020-01-08 11:00:00 5.3 0 Calma 3 Norte 0 -- -- 100
2020-01-08 10:00:00 3.4 0 Calma 2 Sudeste 0 -- -- 100
2020-01-08 09:00:00 2.2 0 Calma -- -- 0 -- -- 100
2020-01-08 08:00:00 1.8 0 Calma 4 Norte 0 -- -- 100
2020-01-08 07:00:00 1.7 0 Calma 3 Oeste 0 -- -- 100
2020-01-08 06:00:00 1.5 0 Calma 0 Calma 0 -- -- 100
2020-01-08 05:00:00 1.6 0 Calma 3 Nordeste 0 -- -- 100
2020-01-08 04:00:00 1.4 0 Calma 3 Sudoeste 0 -- -- 100
2020-01-08 03:00:00 2 0 Calma 2 Noroeste 0 -- -- 99
2020-01-08 02:00:00 2.2 0 Calma 4 Noroeste 0 -- -- 99
2020-01-08 01:00:00 3 2 Noroeste 3 Noroeste 0 -- -- 99
2020-01-08 00:00:00 3.9 0 Calma 3 Noroeste 0 -- -- 99
2020-01-07 23:00:00 4.4 0 Calma 3 Noroeste 0 -- -- 97
2020-01-07 22:00:00 5.4 0 Calma 3 Sudoeste 0 -- -- 97
2020-01-07 21:00:00 6.3 0 Calma 5 Noroeste 0 -- -- 95
2020-01-07 20:00:00 7.2 0 Calma 4 Sur 0 -- -- 92
2020-01-07 19:00:00 8.8 0 Calma 5 Sudoeste 0 -- -- 88
2020-01-07 18:00:00 11 3 Noroeste 13 Nordeste 0 -- -- 81
2020-01-07 17:00:00 12.4 6 Nordeste 18 Nordeste 0 -- -- 76
2020-01-07 16:00:00 14.1 9 Norte 14 Norte 0 -- -- 71
2020-01-07 15:00:00 15.4 3 Nordeste 5 Nordeste 0 -- -- 65
2020-01-07 14:00:00 14.2 4 Noroeste 6 Oeste 0 -- -- 65
2020-01-07 13:00:00 10.8 2 Nordeste 6 Noroeste 0 -- -- 83
2020-01-07 12:00:00 7.1 4 Norte 6 Oeste 0 -- -- 92
2020-01-07 11:00:00 4.2 0 Calma 3 Este 0 -- -- 100
2020-01-07 10:00:00 1.6 0 Calma 6 Nordeste 0 -- -- 100
2020-01-07 09:00:00 0.6 4 Noroeste 8 Sudoeste 0 -- -- 100
2020-01-07 08:00:00 0.3 4 Sudoeste 6 Sudoeste 0 -- -- 100
2020-01-07 07:00:00 0.9 0 Calma 3 Sudoeste 0 -- -- 100
2020-01-07 06:00:00 1.4 2 Norte 5 Noroeste 0 -- -- 100
2020-01-07 05:00:00 1 2 Sudoeste 3 Sudoeste 0 -- -- 100
2020-01-07 04:00:00 1.2 2 Oeste 4 Sudoeste 0 -- -- 100
2020-01-07 03:00:00 1.4 2 Noroeste 4 Norte 0 -- -- 100
2020-01-07 02:00:00 2.3 4 Noroeste 5 Oeste 0 -- -- 100
2020-01-07 01:00:00 2.5 0 Calma 6 Noroeste 0 -- -- 99
2020-01-07 00:00:00 3.2 2 Sudoeste 4 Norte 0 -- -- 98
2020-01-06 23:00:00 3.6 0 Calma 12 Noroeste 0 -- -- 97
2020-01-06 22:00:00 4.2 3 Sur 5 Noroeste 0 -- -- 93
2020-01-06 21:00:00 5.8 2 Sur 8 Sur 0 -- -- 92
2020-01-06 20:00:00 6.9 4 Sudeste 9 Sudeste 0 -- -- 91
2020-01-06 19:00:00 7.5 8 Noroeste 16 Norte 0 -- -- 87
2020-01-06 18:00:00 8.4 7 Sudeste 12 Sur 0 -- -- 86
2020-01-06 17:00:00 10.5 0 Calma 12 Norte 0 -- -- 80
2020-01-06 16:00:00 10.8 3 Norte 11 Norte 0 -- -- 83
2020-01-06 15:00:00 12 7 Nordeste 12 Nordeste 0 -- -- 77
2020-01-06 14:00:00 11 4 Norte 7 Sudeste 0 -- -- 67
2020-01-06 13:00:00 9.8 4 Sudeste 7 Sudeste 0 -- -- 77
2020-01-06 12:00:00 5.5 3 Nordeste 5 Norte 0 -- -- 94
2020-01-06 11:00:00 2.3 0 Calma 9 Noroeste 0 -- -- 100
2020-01-06 10:00:00 -0.8 2 Oeste 6 Noroeste 0 -- -- 100